sensor_id;sensor_type;location;lat;lon;timestamp;P1;durP1;ratioP1;P2;durP2;ratioP2
55601;SDS011;59921;51.332;12.410;2022-07-23T00:01:53;3.42;;;2.45;;
55601;SDS011;59921;51.332;12.410;2022-07-23T00:04:19;2.83;;;2.10;;
55601;SDS011;59921;51.332;12.410;2022-07-23T00:06:44;3.30;;;2.40;;
55601;SDS011;59921;51.332;12.410;2022-07-23T00:09:10;4.15;;;2.58;;
55601;SDS011;59921;51.332;12.410;2022-07-23T00:11:35;3.00;;;2.30;;
55601;SDS011;59921;51.332;12.410;2022-07-23T00:14:01;2.75;;;1.70;;
55601;SDS011;59921;51.332;12.410;2022-07-23T00:16:26;3.10;;;2.30;;
55601;SDS011;59921;51.332;12.410;2022-07-23T00:18:51;2.05;;;1.70;;
55601;SDS011;59921;51.332;12.410;2022-07-23T00:21:17;2.55;;;1.98;;
55601;SDS011;59921;51.332;12.410;2022-07-23T00:23:42;3.15;;;2.28;;
55601;SDS011;59921;51.332;12.410;2022-07-23T00:26:08;4.18;;;2.10;;
55601;SDS011;59921;51.332;12.410;2022-07-23T00:28:33;2.88;;;2.25;;
55601;SDS011;59921;51.332;12.410;2022-07-23T00:30:59;3.53;;;2.40;;
55601;SDS011;59921;51.332;12.410;2022-07-23T00:33:25;2.97;;;2.10;;
55601;SDS011;59921;51.332;12.410;2022-07-23T00:35:50;3.33;;;2.25;;
55601;SDS011;59921;51.332;12.410;2022-07-23T00:38:16;3.72;;;2.40;;
55601;SDS011;59921;51.332;12.410;2022-07-23T00:40:41;3.15;;;2.28;;
55601;SDS011;59921;51.332;12.410;2022-07-23T00:43:07;3.70;;;2.33;;
55601;SDS011;59921;51.332;12.410;2022-07-23T00:45:32;3.80;;;2.10;;
55601;SDS011;59921;51.332;12.410;2022-07-23T00:47:58;3.95;;;2.60;;
55601;SDS011;59921;51.332;12.410;2022-07-23T00:50:24;3.13;;;2.40;;
55601;SDS011;59921;51.332;12.410;2022-07-23T00:52:50;3.00;;;2.08;;
55601;SDS011;59921;51.332;12.410;2022-07-23T00:55:17;2.55;;;1.88;;
55601;SDS011;59921;51.332;12.410;2022-07-23T00:57:42;2.55;;;2.10;;
55601;SDS011;59921;51.332;12.410;2022-07-23T01:00:10;3.42;;;2.10;;
55601;SDS011;59921;51.332;12.410;2022-07-23T01:02:37;4.13;;;2.80;;
55601;SDS011;59921;51.332;12.410;2022-07-23T01:05:03;3.28;;;2.15;;
55601;SDS011;59921;51.332;12.410;2022-07-23T01:07:29;3.17;;;2.22;;
55601;SDS011;59921;51.332;12.410;2022-07-23T01:09:55;2.72;;;2.08;;
55601;SDS011;59921;51.332;12.410;2022-07-23T01:12:21;3.97;;;2.08;;
55601;SDS011;59921;51.332;12.410;2022-07-23T01:14:54;3.85;;;2.17;;
55601;SDS011;59921;51.332;12.410;2022-07-23T01:17:23;3.50;;;2.28;;
55601;SDS011;59921;51.332;12.410;2022-07-23T01:19:49;4.78;;;2.53;;
55601;SDS011;59921;51.332;12.410;2022-07-23T01:22:15;3.70;;;1.98;;
55601;SDS011;59921;51.332;12.410;2022-07-23T01:24:45;3.03;;;2.03;;
55601;SDS011;59921;51.332;12.410;2022-07-23T01:27:11;3.22;;;1.80;;
55601;SDS011;59921;51.332;12.410;2022-07-23T01:29:38;3.45;;;2.30;;
55601;SDS011;59921;51.332;12.410;2022-07-23T01:32:04;4.07;;;2.53;;
55601;SDS011;59921;51.332;12.410;2022-07-23T01:34:30;3.55;;;2.20;;
55601;SDS011;59921;51.332;12.410;2022-07-23T01:36:55;2.28;;;1.65;;
55601;SDS011;59921;51.332;12.410;2022-07-23T01:39:21;2.30;;;2.00;;
55601;SDS011;59921;51.332;12.410;2022-07-23T01:41:46;2.78;;;1.98;;
55601;SDS011;59921;51.332;12.410;2022-07-23T01:44:12;3.88;;;2.08;;
55601;SDS011;59921;51.332;12.410;2022-07-23T01:46:38;2.83;;;1.92;;
55601;SDS011;59921;51.332;12.410;2022-07-23T01:49:04;3.53;;;2.60;;
55601;SDS011;59921;51.332;12.410;2022-07-23T01:51:29;2.80;;;2.20;;
55601;SDS011;59921;51.332;12.410;2022-07-23T01:53:54;3.03;;;2.05;;
55601;SDS011;59921;51.332;12.410;2022-07-23T01:56:20;3.92;;;2.20;;
55601;SDS011;59921;51.332;12.410;2022-07-23T01:58:46;2.85;;;2.05;;
55601;SDS011;59921;51.332;12.410;2022-07-23T02:01:12;3.00;;;2.30;;
55601;SDS011;59921;51.332;12.410;2022-07-23T02:03:38;3.63;;;1.90;;
55601;SDS011;59921;51.332;12.410;2022-07-23T02:06:03;2.88;;;2.08;;
55601;SDS011;59921;51.332;12.410;2022-07-23T02:08:29;2.65;;;2.10;;
55601;SDS011;59921;51.332;12.410;2022-07-23T02:10:54;2.40;;;2.13;;
55601;SDS011;59921;51.332;12.410;2022-07-23T02:13:20;3.10;;;1.80;;
55601;SDS011;59921;51.332;12.410;2022-07-23T02:15:46;3.33;;;1.90;;
55601;SDS011;59921;51.332;12.410;2022-07-23T02:18:13;4.03;;;2.05;;
55601;SDS011;59921;51.332;12.410;2022-07-23T02:20:39;2.30;;;1.98;;
55601;SDS011;59921;51.332;12.410;2022-07-23T02:23:05;3.00;;;2.20;;
55601;SDS011;59921;51.332;12.410;2022-07-23T02:25:31;3.90;;;2.50;;
55601;SDS011;59921;51.332;12.410;2022-07-23T02:27:57;2.72;;;1.95;;
55601;SDS011;59921;51.332;12.410;2022-07-23T02:30:23;2.55;;;1.92;;
55601;SDS011;59921;51.332;12.410;2022-07-23T02:32:48;2.40;;;1.85;;
55601;SDS011;59921;51.332;12.410;2022-07-23T02:35:14;2.60;;;1.92;;
55601;SDS011;59921;51.332;12.410;2022-07-23T02:37:39;3.10;;;2.10;;
55601;SDS011;59921;51.332;12.410;2022-07-23T02:40:05;3.42;;;2.15;;
55601;SDS011;59921;51.332;12.410;2022-07-23T02:42:31;2.72;;;2.08;;
55601;SDS011;59921;51.332;12.410;2022-07-23T02:44:57;2.85;;;2.00;;
55601;SDS011;59921;51.332;12.410;2022-07-23T02:47:22;2.92;;;1.70;;
55601;SDS011;59921;51.332;12.410;2022-07-23T02:49:48;3.85;;;2.15;;
55601;SDS011;59921;51.332;12.410;2022-07-23T02:52:13;2.28;;;1.98;;
55601;SDS011;59921;51.332;12.410;2022-07-23T02:54:39;3.45;;;2.08;;
55601;SDS011;59921;51.332;12.410;2022-07-23T02:57:04;2.35;;;1.92;;
55601;SDS011;59921;51.332;12.410;2022-07-23T02:59:30;2.92;;;2.15;;
55601;SDS011;59921;51.332;12.410;2022-07-23T03:01:56;4.07;;;2.03;;
55601;SDS011;59921;51.332;12.410;2022-07-23T03:04:21;2.60;;;1.67;;
55601;SDS011;59921;51.332;12.410;2022-07-23T03:06:47;2.60;;;1.90;;
55601;SDS011;59921;51.332;12.410;2022-07-23T03:09:12;3.67;;;2.20;;
55601;SDS011;59921;51.332;12.410;2022-07-23T03:11:38;4.40;;;2.50;;
55601;SDS011;59921;51.332;12.410;2022-07-23T03:14:04;2.80;;;2.08;;
55601;SDS011;59921;51.332;12.410;2022-07-23T03:16:29;4.00;;;1.95;;
55601;SDS011;59921;51.332;12.410;2022-07-23T03:18:55;3.05;;;2.20;;
55601;SDS011;59921;51.332;12.410;2022-07-23T03:21:20;3.10;;;2.10;;
55601;SDS011;59921;51.332;12.410;2022-07-23T03:23:46;3.58;;;2.10;;
55601;SDS011;59921;51.332;12.410;2022-07-23T03:26:11;3.05;;;2.00;;
55601;SDS011;59921;51.332;12.410;2022-07-23T03:28:37;3.03;;;2.20;;
55601;SDS011;59921;51.332;12.410;2022-07-23T03:31:02;3.88;;;2.67;;
55601;SDS011;59921;51.332;12.410;2022-07-23T03:33:28;2.85;;;2.20;;
55601;SDS011;59921;51.332;12.410;2022-07-23T03:35:53;3.42;;;2.10;;
55601;SDS011;59921;51.332;12.410;2022-07-23T03:38:19;3.38;;;2.20;;
55601;SDS011;59921;51.332;12.410;2022-07-23T03:40:45;2.38;;;1.95;;
55601;SDS011;59921;51.332;12.410;2022-07-23T03:43:10;3.10;;;2.03;;
55601;SDS011;59921;51.332;12.410;2022-07-23T03:45:36;2.78;;;1.73;;
55601;SDS011;59921;51.332;12.410;2022-07-23T03:48:02;4.95;;;2.10;;
55601;SDS011;59921;51.332;12.410;2022-07-23T03:50:27;3.17;;;2.28;;
55601;SDS011;59921;51.332;12.410;2022-07-23T03:52:53;3.47;;;2.15;;
55601;SDS011;59921;51.332;12.410;2022-07-23T03:55:19;2.42;;;1.90;;
55601;SDS011;59921;51.332;12.410;2022-07-23T03:57:44;2.45;;;2.00;;
55601;SDS011;59921;51.332;12.410;2022-07-23T04:00:10;2.58;;;1.83;;
55601;SDS011;59921;51.332;12.410;2022-07-23T04:02:37;2.72;;;2.08;;
55601;SDS011;59921;51.332;12.410;2022-07-23T04:05:03;3.28;;;2.30;;
55601;SDS011;59921;51.332;12.410;2022-07-23T04:07:29;2.58;;;2.00;;
55601;SDS011;59921;51.332;12.410;2022-07-23T04:09:55;3.20;;;1.95;;
55601;SDS011;59921;51.332;12.410;2022-07-23T04:12:21;2.35;;;1.70;;
55601;SDS011;59921;51.332;12.410;2022-07-23T04:14:47;2.20;;;1.65;;
55601;SDS011;59921;51.332;12.410;2022-07-23T04:17:13;3.40;;;2.13;;
55601;SDS011;59921;51.332;12.410;2022-07-23T04:19:39;3.45;;;1.77;;
55601;SDS011;59921;51.332;12.410;2022-07-23T04:22:10;2.50;;;2.08;;
55601;SDS011;59921;51.332;12.410;2022-07-23T04:24:36;3.25;;;2.10;;
55601;SDS011;59921;51.332;12.410;2022-07-23T04:27:02;2.78;;;2.00;;
55601;SDS011;59921;51.332;12.410;2022-07-23T04:29:28;2.78;;;1.88;;
55601;SDS011;59921;51.332;12.410;2022-07-23T04:31:53;3.17;;;2.03;;
55601;SDS011;59921;51.332;12.410;2022-07-23T04:34:19;3.03;;;2.10;;
55601;SDS011;59921;51.332;12.410;2022-07-23T04:36:44;2.70;;;2.00;;
55601;SDS011;59921;51.332;12.410;2022-07-23T04:39:13;2.22;;;1.70;;
55601;SDS011;59921;51.332;12.410;2022-07-23T04:41:39;2.75;;;1.88;;
55601;SDS011;59921;51.332;12.410;2022-07-23T04:44:05;2.33;;;1.80;;
55601;SDS011;59921;51.332;12.410;2022-07-23T04:46:31;2.88;;;2.00;;
55601;SDS011;59921;51.332;12.410;2022-07-23T04:48:56;2.72;;;2.05;;
55601;SDS011;59921;51.332;12.410;2022-07-23T04:51:22;2.47;;;1.77;;
55601;SDS011;59921;51.332;12.410;2022-07-23T04:53:47;3.08;;;2.15;;
55601;SDS011;59921;51.332;12.410;2022-07-23T04:56:13;3.35;;;2.05;;
55601;SDS011;59921;51.332;12.410;2022-07-23T04:58:38;2.92;;;2.08;;
55601;SDS011;59921;51.332;12.410;2022-07-23T05:01:04;2.55;;;2.03;;
55601;SDS011;59921;51.332;12.410;2022-07-23T05:03:29;2.53;;;2.10;;
55601;SDS011;59921;51.332;12.410;2022-07-23T05:05:55;3.50;;;2.10;;
55601;SDS011;59921;51.332;12.410;2022-07-23T05:08:21;2.63;;;1.90;;
55601;SDS011;59921;51.332;12.410;2022-07-23T05:10:46;3.75;;;2.00;;
55601;SDS011;59921;51.332;12.410;2022-07-23T05:13:13;2.80;;;1.77;;
55601;SDS011;59921;51.332;12.410;2022-07-23T05:15:40;2.53;;;1.73;;
55601;SDS011;59921;51.332;12.410;2022-07-23T05:18:06;3.45;;;1.95;;
55601;SDS011;59921;51.332;12.410;2022-07-23T05:20:32;2.92;;;1.77;;
55601;SDS011;59921;51.332;12.410;2022-07-23T05:22:57;2.15;;;1.73;;
55601;SDS011;59921;51.332;12.410;2022-07-23T05:25:23;3.08;;;2.22;;
55601;SDS011;59921;51.332;12.410;2022-07-23T05:27:49;2.83;;;1.80;;
55601;SDS011;59921;51.332;12.410;2022-07-23T05:30:14;4.13;;;2.28;;
55601;SDS011;59921;51.332;12.410;2022-07-23T05:32:40;3.55;;;2.00;;
55601;SDS011;59921;51.332;12.410;2022-07-23T05:35:05;3.50;;;2.30;;
55601;SDS011;59921;51.332;12.410;2022-07-23T05:37:32;2.90;;;2.00;;
55601;SDS011;59921;51.332;12.410;2022-07-23T05:40:01;3.30;;;2.10;;
55601;SDS011;59921;51.332;12.410;2022-07-23T05:42:32;2.83;;;1.80;;
55601;SDS011;59921;51.332;12.410;2022-07-23T05:45:02;3.47;;;1.95;;
55601;SDS011;59921;51.332;12.410;2022-07-23T05:47:28;2.78;;;2.00;;
55601;SDS011;59921;51.332;12.410;2022-07-23T05:50:03;2.83;;;1.92;;
55601;SDS011;59921;51.332;12.410;2022-07-23T05:52:29;2.70;;;2.00;;
55601;SDS011;59921;51.332;12.410;2022-07-23T05:54:55;3.95;;;2.17;;
55601;SDS011;59921;51.332;12.410;2022-07-23T05:57:20;3.17;;;2.05;;
55601;SDS011;59921;51.332;12.410;2022-07-23T05:59:46;3.38;;;2.10;;
55601;SDS011;59921;51.332;12.410;2022-07-23T06:02:11;2.28;;;1.92;;
55601;SDS011;59921;51.332;12.410;2022-07-23T06:04:37;2.80;;;2.10;;
55601;SDS011;59921;51.332;12.410;2022-07-23T06:07:02;2.65;;;1.80;;
55601;SDS011;59921;51.332;12.410;2022-07-23T06:09:28;2.55;;;1.92;;
55601;SDS011;59921;51.332;12.410;2022-07-23T06:11:53;2.97;;;1.83;;
55601;SDS011;59921;51.332;12.410;2022-07-23T06:14:18;2.97;;;1.92;;
55601;SDS011;59921;51.332;12.410;2022-07-23T06:16:44;2.45;;;1.70;;
55601;SDS011;59921;51.332;12.410;2022-07-23T06:19:09;2.92;;;1.80;;
55601;SDS011;59921;51.332;12.410;2022-07-23T06:21:35;2.75;;;1.58;;
55601;SDS011;59921;51.332;12.410;2022-07-23T06:24:00;2.10;;;1.70;;
55601;SDS011;59921;51.332;12.410;2022-07-23T06:26:26;2.25;;;1.80;;
55601;SDS011;59921;51.332;12.410;2022-07-23T06:28:51;2.67;;;1.60;;
55601;SDS011;59921;51.332;12.410;2022-07-23T06:31:17;2.20;;;1.75;;
55601;SDS011;59921;51.332;12.410;2022-07-23T06:33:42;3.20;;;1.90;;
55601;SDS011;59921;51.332;12.410;2022-07-23T06:36:08;3.60;;;1.90;;
55601;SDS011;59921;51.332;12.410;2022-07-23T06:38:34;3.55;;;1.83;;
55601;SDS011;59921;51.332;12.410;2022-07-23T06:41:00;2.60;;;1.70;;
55601;SDS011;59921;51.332;12.410;2022-07-23T06:43:25;2.80;;;1.95;;
55601;SDS011;59921;51.332;12.410;2022-07-23T06:45:51;4.20;;;1.80;;
55601;SDS011;59921;51.332;12.410;2022-07-23T06:48:16;3.45;;;2.00;;
55601;SDS011;59921;51.332;12.410;2022-07-23T06:50:41;2.72;;;1.70;;
55601;SDS011;59921;51.332;12.410;2022-07-23T06:53:07;3.15;;;1.70;;
55601;SDS011;59921;51.332;12.410;2022-07-23T06:55:33;2.28;;;1.50;;
55601;SDS011;59921;51.332;12.410;2022-07-23T06:58:03;2.72;;;1.75;;
55601;SDS011;59921;51.332;12.410;2022-07-23T07:00:29;3.28;;;2.00;;
55601;SDS011;59921;51.332;12.410;2022-07-23T07:02:56;2.65;;;1.60;;
55601;SDS011;59921;51.332;12.410;2022-07-23T07:05:22;3.08;;;1.80;;
55601;SDS011;59921;51.332;12.410;2022-07-23T07:07:48;2.63;;;1.70;;
55601;SDS011;59921;51.332;12.410;2022-07-23T07:10:13;2.55;;;1.90;;
55601;SDS011;59921;51.332;12.410;2022-07-23T07:12:41;3.13;;;1.80;;
55601;SDS011;59921;51.332;12.410;2022-07-23T07:15:07;4.10;;;1.90;;
55601;SDS011;59921;51.332;12.410;2022-07-23T07:17:33;2.72;;;1.77;;
55601;SDS011;59921;51.332;12.410;2022-07-23T07:19:58;2.63;;;1.60;;
55601;SDS011;59921;51.332;12.410;2022-07-23T07:22:24;2.55;;;1.65;;
55601;SDS011;59921;51.332;12.410;2022-07-23T07:24:49;3.63;;;1.90;;
55601;SDS011;59921;51.332;12.410;2022-07-23T07:27:15;1.90;;;1.35;;
55601;SDS011;59921;51.332;12.410;2022-07-23T07:29:40;2.13;;;1.52;;
55601;SDS011;59921;51.332;12.410;2022-07-23T07:32:06;2.85;;;1.80;;
55601;SDS011;59921;51.332;12.410;2022-07-23T07:34:32;2.75;;;1.83;;
55601;SDS011;59921;51.332;12.410;2022-07-23T07:36:58;2.28;;;1.42;;
55601;SDS011;59921;51.332;12.410;2022-07-23T07:39:23;2.85;;;1.75;;
55601;SDS011;59921;51.332;12.410;2022-07-23T07:41:49;3.95;;;1.70;;
55601;SDS011;59921;51.332;12.410;2022-07-23T07:44:14;2.55;;;1.52;;
55601;SDS011;59921;51.332;12.410;2022-07-23T07:46:40;3.75;;;1.50;;
55601;SDS011;59921;51.332;12.410;2022-07-23T07:49:06;3.38;;;1.88;;
55601;SDS011;59921;51.332;12.410;2022-07-23T07:51:31;4.13;;;2.00;;
55601;SDS011;59921;51.332;12.410;2022-07-23T07:53:58;2.97;;;1.73;;
55601;SDS011;59921;51.332;12.410;2022-07-23T07:56:23;4.63;;;1.70;;
55601;SDS011;59921;51.332;12.410;2022-07-23T07:58:49;3.00;;;1.70;;
55601;SDS011;59921;51.332;12.410;2022-07-23T08:01:15;2.33;;;1.40;;
55601;SDS011;59921;51.332;12.410;2022-07-23T08:03:40;2.80;;;1.52;;
55601;SDS011;59921;51.332;12.410;2022-07-23T08:06:06;2.72;;;1.67;;
55601;SDS011;59921;51.332;12.410;2022-07-23T08:08:32;3.17;;;1.60;;
55601;SDS011;59921;51.332;12.410;2022-07-23T08:10:57;1.88;;;1.45;;
55601;SDS011;59921;51.332;12.410;2022-07-23T08:13:22;3.50;;;1.70;;
55601;SDS011;59921;51.332;12.410;2022-07-23T08:15:48;2.38;;;1.63;;
55601;SDS011;59921;51.332;12.410;2022-07-23T08:18:13;2.60;;;1.63;;
55601;SDS011;59921;51.332;12.410;2022-07-23T08:20:39;2.83;;;1.80;;
55601;SDS011;59921;51.332;12.410;2022-07-23T08:23:07;3.20;;;1.58;;
55601;SDS011;59921;51.332;12.410;2022-07-23T08:25:37;2.85;;;1.77;;
55601;SDS011;59921;51.332;12.410;2022-07-23T08:28:05;2.83;;;1.60;;
55601;SDS011;59921;51.332;12.410;2022-07-23T08:30:33;2.72;;;1.70;;
55601;SDS011;59921;51.332;12.410;2022-07-23T08:33:09;2.45;;;1.67;;
55601;SDS011;59921;51.332;12.410;2022-07-23T08:35:40;2.60;;;1.77;;
55601;SDS011;59921;51.332;12.410;2022-07-23T08:38:09;2.00;;;1.48;;
55601;SDS011;59921;51.332;12.410;2022-07-23T08:40:37;2.72;;;1.92;;
55601;SDS011;59921;51.332;12.410;2022-07-23T08:43:04;2.22;;;1.58;;
55601;SDS011;59921;51.332;12.410;2022-07-23T08:45:34;3.15;;;1.65;;
55601;SDS011;59921;51.332;12.410;2022-07-23T08:48:02;2.80;;;2.00;;
55601;SDS011;59921;51.332;12.410;2022-07-23T08:50:28;3.70;;;1.77;;
55601;SDS011;59921;51.332;12.410;2022-07-23T08:52:54;2.28;;;1.67;;
55601;SDS011;59921;51.332;12.410;2022-07-23T08:55:21;2.33;;;1.58;;
55601;SDS011;59921;51.332;12.410;2022-07-23T08:57:48;2.63;;;1.75;;
55601;SDS011;59921;51.332;12.410;2022-07-23T09:00:15;2.83;;;1.88;;
55601;SDS011;59921;51.332;12.410;2022-07-23T09:02:42;2.75;;;1.83;;
55601;SDS011;59921;51.332;12.410;2022-07-23T09:05:09;2.72;;;1.88;;
55601;SDS011;59921;51.332;12.410;2022-07-23T09:07:37;3.25;;;1.80;;
55601;SDS011;59921;51.332;12.410;2022-07-23T09:10:22;3.55;;;1.80;;
55601;SDS011;59921;51.332;12.410;2022-07-23T09:12:48;2.90;;;1.77;;
55601;SDS011;59921;51.332;12.410;2022-07-23T09:15:14;2.30;;;1.73;;
55601;SDS011;59921;51.332;12.410;2022-07-23T09:17:40;2.50;;;1.67;;
55601;SDS011;59921;51.332;12.410;2022-07-23T09:20:14;3.60;;;1.60;;
55601;SDS011;59921;51.332;12.410;2022-07-23T09:25:12;3.92;;;2.00;;
55601;SDS011;59921;51.332;12.410;2022-07-23T09:30:25;2.60;;;1.70;;
55601;SDS011;59921;51.332;12.410;2022-07-23T09:33:13;2.35;;;1.70;;
55601;SDS011;59921;51.332;12.410;2022-07-23T09:35:50;4.13;;;2.47;;
55601;SDS011;59921;51.332;12.410;2022-07-23T09:38:17;2.70;;;1.95;;
55601;SDS011;59921;51.332;12.410;2022-07-23T09:40:44;3.10;;;2.05;;
55601;SDS011;59921;51.332;12.410;2022-07-23T09:43:11;4.18;;;2.47;;
55601;SDS011;59921;51.332;12.410;2022-07-23T09:45:38;3.42;;;2.50;;
55601;SDS011;59921;51.332;12.410;2022-07-23T09:48:11;2.80;;;2.13;;
55601;SDS011;59921;51.332;12.410;2022-07-23T09:50:39;3.35;;;2.13;;
55601;SDS011;59921;51.332;12.410;2022-07-23T09:53:05;3.10;;;2.20;;
55601;SDS011;59921;51.332;12.410;2022-07-23T09:55:32;4.03;;;2.38;;
55601;SDS011;59921;51.332;12.410;2022-07-23T09:58:03;3.47;;;2.33;;
55601;SDS011;59921;51.332;12.410;2022-07-23T10:00:31;3.28;;;2.20;;
55601;SDS011;59921;51.332;12.410;2022-07-23T10:02:57;3.65;;;2.60;;
55601;SDS011;59921;51.332;12.410;2022-07-23T10:05:24;3.67;;;2.40;;
55601;SDS011;59921;51.332;12.410;2022-07-23T10:07:51;3.70;;;2.65;;
55601;SDS011;59921;51.332;12.410;2022-07-23T10:10:17;3.70;;;2.17;;
55601;SDS011;59921;51.332;12.410;2022-07-23T10:12:43;3.03;;;2.22;;
55601;SDS011;59921;51.332;12.410;2022-07-23T10:15:15;3.20;;;2.15;;
55601;SDS011;59921;51.332;12.410;2022-07-23T10:17:40;3.17;;;2.08;;
55601;SDS011;59921;51.332;12.410;2022-07-23T10:20:06;3.40;;;2.20;;
55601;SDS011;59921;51.332;12.410;2022-07-23T10:22:35;4.07;;;2.40;;
55601;SDS011;59921;51.332;12.410;2022-07-23T10:25:08;2.92;;;2.15;;
55601;SDS011;59921;51.332;12.410;2022-07-23T10:27:43;3.55;;;2.47;;
55601;SDS011;59921;51.332;12.410;2022-07-23T10:38:02;2.92;;;2.15;;
55601;SDS011;59921;51.332;12.410;2022-07-23T10:44:08;3.92;;;2.10;;
55601;SDS011;59921;51.332;12.410;2022-07-23T10:46:33;3.00;;;2.10;;
55601;SDS011;59921;51.332;12.410;2022-07-23T10:49:39;3.17;;;2.28;;
55601;SDS011;59921;51.332;12.410;2022-07-23T10:54:42;2.75;;;2.00;;
55601;SDS011;59921;51.332;12.410;2022-07-23T10:57:14;3.28;;;2.20;;
55601;SDS011;59921;51.332;12.410;2022-07-23T11:02:35;3.10;;;2.03;;
55601;SDS011;59921;51.332;12.410;2022-07-23T11:05:05;3.03;;;2.10;;
55601;SDS011;59921;51.332;12.410;2022-07-23T11:07:32;4.07;;;2.00;;
55601;SDS011;59921;51.332;12.410;2022-07-23T11:09:58;3.47;;;2.08;;
55601;SDS011;59921;51.332;12.410;2022-07-23T11:17:27;2.35;;;1.83;;
55601;SDS011;59921;51.332;12.410;2022-07-23T11:25:01;2.40;;;1.77;;
55601;SDS011;59921;51.332;12.410;2022-07-23T11:27:37;3.22;;;2.42;;
55601;SDS011;59921;51.332;12.410;2022-07-23T11:32:54;3.65;;;2.40;;
55601;SDS011;59921;51.332;12.410;2022-07-23T11:35:40;2.67;;;2.20;;
55601;SDS011;59921;51.332;12.410;2022-07-23T11:38:17;2.55;;;2.13;;
55601;SDS011;59921;51.332;12.410;2022-07-23T11:40:45;3.85;;;2.20;;
55601;SDS011;59921;51.332;12.410;2022-07-23T11:43:12;3.22;;;2.25;;
55601;SDS011;59921;51.332;12.410;2022-07-23T11:45:40;3.90;;;2.33;;
55601;SDS011;59921;51.332;12.410;2022-07-23T11:48:29;3.45;;;2.53;;
55601;SDS011;59921;51.332;12.410;2022-07-23T11:50:54;3.60;;;2.25;;
55601;SDS011;59921;51.332;12.410;2022-07-23T11:53:28;5.15;;;2.47;;
55601;SDS011;59921;51.332;12.410;2022-07-23T11:58:35;3.08;;;2.17;;
55601;SDS011;59921;51.332;12.410;2022-07-23T12:01:00;3.85;;;2.25;;
55601;SDS011;59921;51.332;12.410;2022-07-23T12:03:26;3.55;;;2.10;;
55601;SDS011;59921;51.332;12.410;2022-07-23T12:05:55;3.47;;;2.40;;
55601;SDS011;59921;51.332;12.410;2022-07-23T12:08:22;2.55;;;2.10;;
55601;SDS011;59921;51.332;12.410;2022-07-23T12:10:48;2.58;;;1.98;;
55601;SDS011;59921;51.332;12.410;2022-07-23T12:13:15;2.60;;;1.98;;
55601;SDS011;59921;51.332;12.410;2022-07-23T12:15:50;3.00;;;2.40;;
55601;SDS011;59921;51.332;12.410;2022-07-23T12:18:19;3.15;;;2.25;;
55601;SDS011;59921;51.332;12.410;2022-07-23T12:20:56;4.72;;;2.33;;
55601;SDS011;59921;51.332;12.410;2022-07-23T12:23:27;2.97;;;2.17;;
55601;SDS011;59921;51.332;12.410;2022-07-23T12:25:53;2.92;;;1.90;;
55601;SDS011;59921;51.332;12.410;2022-07-23T12:28:27;2.92;;;2.08;;
55601;SDS011;59921;51.332;12.410;2022-07-23T12:30:54;3.28;;;2.47;;
55601;SDS011;59921;51.332;12.410;2022-07-23T12:33:28;4.22;;;2.53;;
55601;SDS011;59921;51.332;12.410;2022-07-23T12:35:59;4.03;;;2.30;;
55601;SDS011;59921;51.332;12.410;2022-07-23T12:38:27;3.88;;;2.08;;
55601;SDS011;59921;51.332;12.410;2022-07-23T12:41:01;3.45;;;2.05;;
55601;SDS011;59921;51.332;12.410;2022-07-23T12:43:28;4.47;;;2.60;;
55601;SDS011;59921;51.332;12.410;2022-07-23T12:46:05;3.30;;;2.35;;
55601;SDS011;59921;51.332;12.410;2022-07-23T12:48:34;2.65;;;2.10;;
55601;SDS011;59921;51.332;12.410;2022-07-23T12:51:05;3.00;;;2.40;;
55601;SDS011;59921;51.332;12.410;2022-07-23T12:53:40;2.72;;;2.30;;
55601;SDS011;59921;51.332;12.410;2022-07-23T12:56:17;3.97;;;2.55;;
55601;SDS011;59921;51.332;12.410;2022-07-23T12:58:47;4.28;;;2.47;;
55601;SDS011;59921;51.332;12.410;2022-07-23T13:01:24;3.05;;;2.15;;
55601;SDS011;59921;51.332;12.410;2022-07-23T13:03:56;3.22;;;2.17;;
55601;SDS011;59921;51.332;12.410;2022-07-23T13:06:41;3.45;;;2.30;;
55601;SDS011;59921;51.332;12.410;2022-07-23T13:09:09;3.67;;;2.45;;
55601;SDS011;59921;51.332;12.410;2022-07-23T13:11:46;2.90;;;2.08;;
55601;SDS011;59921;51.332;12.410;2022-07-23T13:14:13;2.92;;;2.13;;
55601;SDS011;59921;51.332;12.410;2022-07-23T13:16:39;3.75;;;2.33;;
55601;SDS011;59921;51.332;12.410;2022-07-23T13:19:05;3.15;;;2.05;;
55601;SDS011;59921;51.332;12.410;2022-07-23T13:21:31;4.18;;;2.47;;
55601;SDS011;59921;51.332;12.410;2022-07-23T13:23:57;3.85;;;2.40;;
55601;SDS011;59921;51.332;12.410;2022-07-23T13:26:23;3.50;;;2.60;;
55601;SDS011;59921;51.332;12.410;2022-07-23T13:28:49;3.13;;;2.28;;
55601;SDS011;59921;51.332;12.410;2022-07-23T13:31:16;3.28;;;2.22;;
55601;SDS011;59921;51.332;12.410;2022-07-23T13:33:42;3.03;;;2.28;;
55601;SDS011;59921;51.332;12.410;2022-07-23T13:36:08;4.22;;;2.38;;
55601;SDS011;59921;51.332;12.410;2022-07-23T13:38:33;3.08;;;2.22;;
55601;SDS011;59921;51.332;12.410;2022-07-23T13:40:59;3.42;;;1.90;;
55601;SDS011;59921;51.332;12.410;2022-07-23T13:43:25;3.95;;;2.50;;
55601;SDS011;59921;51.332;12.410;2022-07-23T13:45:51;3.10;;;2.15;;
55601;SDS011;59921;51.332;12.410;2022-07-23T13:48:18;4.22;;;2.35;;
55601;SDS011;59921;51.332;12.410;2022-07-23T13:50:44;3.42;;;2.20;;
55601;SDS011;59921;51.332;12.410;2022-07-23T13:53:13;4.03;;;2.60;;
55601;SDS011;59921;51.332;12.410;2022-07-23T13:55:41;3.78;;;2.30;;
55601;SDS011;59921;51.332;12.410;2022-07-23T13:58:07;4.15;;;2.72;;
55601;SDS011;59921;51.332;12.410;2022-07-23T14:00:34;3.28;;;2.30;;
55601;SDS011;59921;51.332;12.410;2022-07-23T14:06:23;5.05;;;2.58;;
55601;SDS011;59921;51.332;12.410;2022-07-23T14:08:49;2.88;;;2.40;;
55601;SDS011;59921;51.332;12.410;2022-07-23T14:11:14;3.05;;;2.38;;
55601;SDS011;59921;51.332;12.410;2022-07-23T14:13:40;3.00;;;2.30;;
55601;SDS011;59921;51.332;12.410;2022-07-23T14:16:05;2.95;;;2.15;;
55601;SDS011;59921;51.332;12.410;2022-07-23T14:18:31;3.25;;;2.40;;
55601;SDS011;59921;51.332;12.410;2022-07-23T14:20:56;3.78;;;2.47;;
55601;SDS011;59921;51.332;12.410;2022-07-23T14:23:22;3.65;;;2.40;;
55601;SDS011;59921;51.332;12.410;2022-07-23T14:25:47;3.50;;;2.40;;
55601;SDS011;59921;51.332;12.410;2022-07-23T14:28:13;3.05;;;2.25;;
55601;SDS011;59921;51.332;12.410;2022-07-23T14:30:38;2.53;;;2.00;;
55601;SDS011;59921;51.332;12.410;2022-07-23T14:33:04;2.70;;;2.15;;
55601;SDS011;59921;51.332;12.410;2022-07-23T14:35:29;3.60;;;2.30;;
55601;SDS011;59921;51.332;12.410;2022-07-23T14:37:54;2.92;;;2.40;;
55601;SDS011;59921;51.332;12.410;2022-07-23T14:40:21;3.33;;;2.28;;
55601;SDS011;59921;51.332;12.410;2022-07-23T14:42:47;2.95;;;2.28;;
55601;SDS011;59921;51.332;12.410;2022-07-23T14:45:12;2.97;;;2.25;;
55601;SDS011;59921;51.332;12.410;2022-07-23T14:47:38;3.20;;;2.45;;
55601;SDS011;59921;51.332;12.410;2022-07-23T14:50:04;3.10;;;2.30;;
55601;SDS011;59921;51.332;12.410;2022-07-23T14:52:30;2.80;;;2.15;;
55601;SDS011;59921;51.332;12.410;2022-07-23T14:54:55;3.28;;;2.50;;
55601;SDS011;59921;51.332;12.410;2022-07-23T14:57:21;2.22;;;2.03;;
55601;SDS011;59921;51.332;12.410;2022-07-23T14:59:46;2.95;;;2.05;;
55601;SDS011;59921;51.332;12.410;2022-07-23T15:02:11;2.88;;;2.38;;
55601;SDS011;59921;51.332;12.410;2022-07-23T15:04:37;3.65;;;2.38;;
55601;SDS011;59921;51.332;12.410;2022-07-23T15:07:03;3.40;;;2.30;;
55601;SDS011;59921;51.332;12.410;2022-07-23T15:09:29;2.63;;;2.15;;
55601;SDS011;59921;51.332;12.410;2022-07-23T15:11:54;3.22;;;2.20;;
55601;SDS011;59921;51.332;12.410;2022-07-23T15:14:20;3.75;;;2.45;;